createdAt,value
2022-08-09T00:01:24.754Z,72.29
2022-08-09T00:04:25.151Z,72.02
2022-08-09T00:06:56.343Z,72.92
2022-08-09T00:09:28.019Z,70.55
2022-08-09T00:12:03.635Z,70.90
2022-08-09T00:14:37.957Z,71.08
2022-08-09T00:17:08.128Z,71.60
2022-08-09T00:19:37.798Z,71.81
2022-08-09T00:22:09.680Z,71.70
2022-08-09T00:24:42.238Z,72.36
2022-08-09T00:27:11.618Z,72.74
2022-08-09T00:30:16.782Z,72.36
2022-08-09T00:32:32.460Z,72.29
2022-08-09T00:35:03.625Z,71.91
2022-08-09T00:37:32.738Z,71.71
2022-08-09T00:40:12.806Z,71.25
2022-08-09T00:44:13.033Z,72.59
2022-08-09T00:45:35.672Z,72.11
2022-08-09T00:48:06.759Z,71.76
2022-08-09T00:50:37.870Z,71.88
2022-08-09T00:53:10.242Z,72.58
2022-08-09T00:56:05.073Z,71.96
2022-08-09T00:58:34.509Z,71.60
2022-08-09T01:01:08.637Z,72.19
2022-08-09T01:03:51.548Z,71.90
2022-08-09T01:06:35.144Z,71.46
2022-08-09T01:09:36.786Z,71.39
2022-08-09T01:12:19.149Z,72.07
2022-08-09T01:14:56.765Z,72.26
2022-08-09T01:17:34.188Z,72.92
2022-08-09T01:20:07.643Z,72.28
2022-08-09T01:24:01.902Z,72.09
2022-08-09T01:26:19.506Z,73.02
2022-08-09T01:28:54.641Z,73.11
2022-08-09T01:32:29.526Z,72.06
2022-08-09T01:34:22.538Z,72.22
2022-08-09T01:36:52.432Z,72.79
2022-08-09T01:39:24.362Z,73.33
2022-08-09T01:42:01.435Z,73.27
2022-08-09T01:44:36.106Z,73.04
2022-08-09T01:47:06.975Z,72.44
2022-08-09T01:49:42.269Z,72.47
2022-08-09T01:52:22.228Z,72.13
2022-08-09T01:54:56.723Z,71.59
2022-08-09T01:57:29.727Z,71.97
2022-08-09T02:00:35.001Z,72.00
2022-08-09T02:03:06.522Z,72.34
2022-08-09T02:05:37.919Z,72.63
2022-08-09T02:08:40.098Z,72.76
2022-08-09T02:11:17.078Z,72.50
2022-08-09T02:13:55.310Z,72.67
2022-08-09T02:16:59.154Z,72.41
2022-08-09T02:19:38.711Z,72.66
2022-08-09T02:22:19.133Z,72.21
2022-08-09T02:25:03.754Z,71.62
2022-08-09T02:27:58.139Z,71.31
2022-08-09T02:30:29.651Z,71.31
2022-08-09T02:33:03.179Z,71.92
2022-08-09T02:36:01.426Z,72.18
2022-08-09T02:38:32.418Z,72.10
2022-08-09T02:41:09.511Z,72.13
2022-08-09T02:43:53.954Z,72.47
2022-08-09T02:46:28.772Z,72.27
2022-08-09T02:49:03.967Z,71.85
2022-08-09T02:51:40.578Z,71.80
2022-08-09T02:54:14.128Z,71.98
2022-08-09T02:56:51.104Z,72.32
2022-08-09T02:59:26.423Z,72.77
2022-08-09T03:02:12.282Z,74.24
2022-08-09T03:04:50.861Z,73.38
2022-08-09T03:07:22.848Z,73.44
2022-08-09T03:09:56.788Z,73.05
2022-08-09T03:14:07.102Z,72.48
2022-08-09T03:16:41.726Z,73.54
2022-08-09T03:19:58.854Z,73.13
2022-08-09T03:22:12.077Z,72.78
2022-08-09T03:25:06.387Z,73.05
2022-08-09T03:27:46.262Z,72.82
2022-08-09T03:30:29.523Z,73.18
2022-08-09T03:33:13.145Z,72.80
2022-08-09T03:36:13.381Z,72.79
2022-08-09T03:38:43.585Z,72.71
2022-08-09T03:41:16.285Z,72.83
2022-08-09T03:44:03.535Z,72.71
2022-08-09T03:46:37.380Z,71.93
2022-08-09T03:49:09.680Z,72.13
2022-08-09T03:51:57.123Z,72.76
2022-08-09T03:54:34.642Z,72.14
2022-08-09T03:57:18.120Z,71.68
2022-08-09T03:59:55.448Z,71.46
2022-08-09T04:02:28.895Z,71.58
2022-08-09T04:05:00.707Z,70.94
2022-08-09T04:07:47.381Z,70.56
2022-08-09T04:10:29.461Z,69.80
2022-08-09T04:13:04.252Z,70.76
2022-08-09T04:16:17.562Z,71.18
2022-08-09T04:18:24.991Z,70.88
2022-08-09T04:20:54.565Z,70.45
2022-08-09T04:23:25.771Z,70.53
2022-08-09T04:25:57.401Z,70.30
2022-08-09T04:28:33.195Z,70.65
2022-08-09T04:31:05.846Z,69.56
2022-08-09T04:33:52.527Z,70.65
2022-08-09T04:36:25.283Z,69.99
2022-08-09T04:38:54.789Z,69.66
2022-08-09T04:41:32.781Z,69.51
2022-08-09T04:44:06.915Z,69.63
2022-08-09T04:46:59.606Z,69.75
2022-08-09T04:49:53.049Z,70.05
2022-08-09T04:52:26.618Z,70.23
2022-08-09T04:54:56.565Z,70.58
2022-08-09T04:57:59.173Z,70.71
2022-08-09T05:00:17.322Z,70.46
2022-08-09T05:02:52.033Z,69.68
2022-08-09T05:05:32.011Z,69.90
2022-08-09T05:08:14.062Z,69.41
2022-08-09T05:10:44.869Z,68.65
2022-08-09T05:13:15.741Z,69.01
2022-08-09T05:15:47.893Z,69.24
2022-08-09T05:18:38.720Z,68.29
2022-08-09T05:21:10.077Z,68.07
2022-08-09T05:23:59.870Z,66.65
2022-08-09T05:26:37.316Z,66.42
2022-08-09T05:29:21.562Z,65.73
2022-08-09T05:31:57.500Z,65.88
2022-08-09T05:34:31.128Z,66.32
2022-08-09T05:37:06.286Z,66.49
2022-08-09T05:39:42.414Z,66.73
2022-08-09T05:42:17.901Z,65.66
2022-08-09T05:44:54.623Z,65.95
2022-08-09T05:47:27.108Z,66.11
2022-08-09T05:50:32.466Z,65.58
2022-08-09T05:52:53.339Z,64.10
2022-08-09T05:55:24.214Z,63.25
2022-08-09T05:57:56.670Z,64.42
2022-08-09T06:00:30.198Z,63.40
2022-08-09T06:03:00.723Z,64.25
2022-08-09T06:05:57.713Z,62.99
2022-08-09T06:08:24.537Z,62.14
2022-08-09T06:10:56.083Z,62.04
2022-08-09T06:13:25.558Z,60.95
2022-08-09T06:15:59.270Z,59.21
2022-08-09T06:18:30.933Z,58.99
2022-08-09T06:21:00.516Z,59.43
2022-08-09T06:23:57.302Z,56.19
2022-08-09T06:26:22.228Z,55.86
2022-08-09T06:28:59.599Z,56.79
2022-08-09T06:31:39.160Z,56.65
2022-08-09T06:34:23.367Z,55.25
2022-08-09T06:36:57.227Z,55.12
2022-08-09T06:39:49.165Z,56.04
2022-08-09T06:42:20.283Z,56.92
2022-08-09T06:44:54.706Z,56.68
2022-08-09T06:47:25.470Z,56.41
2022-08-09T06:50:14.128Z,54.16
2022-08-09T06:52:48.730Z,54.82
2022-08-09T06:55:22.241Z,56.01
2022-08-09T06:58:03.117Z,53.89
2022-08-09T07:00:51.875Z,53.04
2022-08-09T07:03:27.969Z,52.21
2022-08-09T07:06:04.576Z,54.42
2022-08-09T07:08:37.337Z,52.72
2022-08-09T07:11:12.781Z,51.43
2022-08-09T07:14:04.416Z,52.24
2022-08-09T07:16:41.286Z,52.81
2022-08-09T07:19:23.382Z,51.13
2022-08-09T07:21:55.370Z,49.49
2022-08-09T07:24:31.494Z,50.98
2022-08-09T07:27:02.964Z,49.00
2022-08-09T07:29:37.988Z,50.85
2022-08-09T07:32:12.122Z,50.48
2022-08-09T07:34:42.822Z,50.72
2022-08-09T07:37:15.808Z,51.96
2022-08-09T07:39:46.455Z,51.58
2022-08-09T07:42:15.863Z,49.60
2022-08-09T07:44:51.852Z,50.53
2022-08-09T07:47:23.612Z,48.90
2022-08-09T07:50:08.060Z,49.98
2022-08-09T07:52:41.349Z,49.42
2022-08-09T07:55:12.820Z,47.94
2022-08-09T07:57:46.998Z,48.30
2022-08-09T08:00:20.653Z,48.57
2022-08-09T08:03:08.244Z,49.91
2022-08-09T08:05:57.886Z,49.14
2022-08-09T08:09:01.017Z,47.85
2022-08-09T08:12:10.819Z,48.16
2022-08-09T08:14:06.608Z,48.65
2022-08-09T08:16:35.919Z,47.38
2022-08-09T08:19:08.548Z,48.79
2022-08-09T08:21:39.564Z,49.01
2022-08-09T08:24:11.851Z,47.87
2022-08-09T08:26:56.065Z,48.70
2022-08-09T08:29:27.927Z,47.24
2022-08-09T08:32:04.191Z,47.21
2022-08-09T08:34:36.542Z,45.70
2022-08-09T08:37:07.218Z,45.08
2022-08-09T08:39:44.787Z,46.32
2022-08-09T08:42:14.484Z,44.27
2022-08-09T08:44:46.440Z,46.23
2022-08-09T08:47:17.484Z,45.94
2022-08-09T08:49:49.319Z,45.46
2022-08-09T08:52:57.531Z,46.94
2022-08-09T08:55:15.304Z,42.11
2022-08-09T08:57:56.814Z,43.40
2022-08-09T09:00:30.015Z,44.99
2022-08-09T09:03:11.999Z,42.38
2022-08-09T09:06:00.169Z,42.09
2022-08-09T09:08:40.373Z,41.93
2022-08-09T09:11:13.566Z,43.25
2022-08-09T09:13:57.187Z,40.81
2022-08-09T09:16:34.391Z,39.72
2022-08-09T09:19:40.242Z,41.51
2022-08-09T09:22:04.181Z,41.46
2022-08-09T09:24:39.707Z,40.81
2022-08-09T09:27:22.109Z,38.74
2022-08-09T09:30:26.112Z,39.84
2022-08-09T09:33:15.598Z,39.25
2022-08-09T09:36:02.707Z,36.73
2022-08-09T09:38:44.588Z,39.26
2022-08-09T09:41:33.534Z,37.82
2022-08-09T09:44:27.645Z,40.08
2022-08-09T09:47:08.406Z,39.63
2022-08-09T09:50:13.236Z,38.10
2022-08-09T09:52:37.225Z,37.67
2022-08-09T09:55:27.851Z,37.29
2022-08-09T09:58:16.413Z,35.90
2022-08-09T10:00:55.276Z,36.51
2022-08-09T10:03:44.064Z,34.34
2022-08-09T10:06:14.607Z,36.03
2022-08-09T10:08:57.240Z,35.80
2022-08-09T10:12:11.435Z,35.84
2022-08-09T10:14:33.085Z,35.48
2022-08-09T10:17:39.150Z,35.75
2022-08-09T10:20:00.478Z,34.13
2022-08-09T10:22:34.494Z,33.39
2022-08-09T10:25:12.171Z,35.27
2022-08-09T10:27:56.331Z,32.37
2022-08-09T10:34:08.256Z,31.66
2022-08-09T10:36:12.002Z,30.77
2022-08-09T10:38:56.981Z,29.78
2022-08-09T10:41:29.363Z,28.53
2022-08-09T10:44:02.151Z,25.26
2022-08-09T10:47:04.002Z,24.23
2022-08-09T10:49:51.738Z,24.75
2022-08-09T10:52:42.835Z,27.21
2022-08-09T10:55:25.186Z,26.01
2022-08-09T10:57:59.827Z,25.19
2022-08-09T11:03:05.646Z,23.24
2022-08-09T11:03:49.946Z,24.27
2022-08-09T11:06:26.160Z,23.28
2022-08-09T11:09:15.371Z,21.10
2022-08-09T11:12:13.515Z,20.62
2022-08-09T11:14:45.015Z,22.66
2022-08-09T11:17:53.521Z,18.66
2022-08-09T11:20:57.848Z,21.88
2022-08-09T11:23:30.120Z,17.46
2022-08-09T11:26:00.324Z,21.46
2022-08-09T11:28:38.604Z,20.18
2022-08-09T11:31:49.933Z,18.35
2022-08-09T11:34:43.877Z,17.01
2022-08-09T11:37:31.217Z,17.94
2022-08-09T11:40:12.470Z,21.32
2022-08-09T11:42:50.146Z,24.30
2022-08-09T11:45:22.957Z,25.20
2022-08-09T11:48:03.496Z,25.74
2022-08-09T11:53:02.090Z,29.51
2022-08-09T11:54:28.007Z,28.54
2022-08-09T11:57:47.841Z,25.66
2022-08-09T12:00:31.721Z,19.85
2022-08-09T12:03:31.794Z,20.09
2022-08-09T12:05:53.548Z,22.86
2022-08-09T12:08:23.736Z,20.99
2022-08-09T12:10:57.624Z,17.45
2022-08-09T12:14:09.478Z,17.47
2022-08-09T12:16:30.431Z,16.08
2022-08-09T12:19:09.434Z,16.78
2022-08-09T12:21:48.794Z,17.13
2022-08-09T12:24:24.085Z,16.66
2022-08-09T12:28:59.164Z,17.35
2022-08-09T12:30:01.428Z,17.58
2022-08-09T12:32:48.742Z,18.46
2022-08-09T12:35:19.244Z,16.82
2022-08-09T12:37:53.614Z,18.71
2022-08-09T12:40:26.875Z,16.91
2022-08-09T12:42:58.187Z,15.37
2022-08-09T12:45:34.057Z,16.36
2022-08-09T12:48:20.082Z,17.25
2022-08-09T12:50:58.324Z,18.28
2022-08-09T12:53:37.661Z,17.54
2022-08-09T12:56:39.669Z,17.56
2022-08-09T12:59:10.544Z,16.57
2022-08-09T13:01:48.680Z,17.06
2022-08-09T13:04:35.946Z,17.83
2022-08-09T13:07:14.449Z,18.70
2022-08-09T13:09:56.004Z,18.48
2022-08-09T13:12:30.802Z,18.82
2022-08-09T13:15:08.831Z,18.50
2022-08-09T13:17:58.877Z,20.62
2022-08-09T13:20:37.510Z,20.34
2022-08-09T13:24:17.304Z,18.56
2022-08-09T13:26:41.735Z,20.97
2022-08-09T13:29:15.041Z,21.44
2022-08-09T13:32:16.177Z,24.21
2022-08-09T13:34:49.526Z,23.98
2022-08-09T13:37:51.231Z,22.90
2022-08-09T13:41:56.539Z,21.85
2022-08-09T13:43:03.625Z,20.85
2022-08-09T13:46:42.450Z,21.23
2022-08-09T13:48:26.335Z,19.81
2022-08-09T13:50:59.096Z,19.69
2022-08-09T13:53:43.618Z,19.50
2022-08-09T13:56:13.983Z,19.53
2022-08-09T13:58:43.490Z,18.04
2022-08-09T14:01:13.400Z,19.48
2022-08-09T14:04:11.275Z,20.64
2022-08-09T14:06:43.663Z,18.95
2022-08-09T14:09:15.827Z,19.14
2022-08-09T14:11:47.233Z,19.28
2022-08-09T14:14:26.838Z,19.43
2022-08-09T14:16:57.088Z,20.87
2022-08-09T14:19:30.348Z,20.46
2022-08-09T14:22:02.581Z,19.64
2022-08-09T14:24:32.591Z,21.45
2022-08-09T14:27:02.752Z,23.54
2022-08-09T14:30:36.360Z,26.33
2022-08-09T14:32:30.717Z,25.51
2022-08-09T14:35:02.245Z,25.16
2022-08-09T14:37:41.352Z,23.44
2022-08-09T14:40:38.808Z,22.97
2022-08-09T14:43:12.421Z,25.89
2022-08-09T14:46:54.106Z,29.30
2022-08-09T14:48:37.237Z,30.44
2022-08-09T14:51:08.219Z,30.80
2022-08-09T14:53:40.003Z,28.97
2022-08-09T14:56:15.941Z,30.53
2022-08-09T14:58:45.490Z,31.87
2022-08-09T15:01:16.191Z,32.86
2022-08-09T15:03:49.059Z,31.18
2022-08-09T15:06:19.319Z,33.12
2022-08-09T15:08:56.307Z,30.38
2022-08-09T15:11:26.374Z,30.07
2022-08-09T15:14:04.699Z,26.65
2022-08-09T15:16:43.073Z,25.38
2022-08-09T15:19:17.876Z,27.49
2022-08-09T15:21:58.871Z,29.45
2022-08-09T15:24:31.056Z,28.36
2022-08-09T15:27:01.901Z,29.58
2022-08-09T15:30:57.552Z,28.72
2022-08-09T15:32:29.773Z,27.49
2022-08-09T15:35:00.943Z,28.83
2022-08-09T15:37:57.351Z,31.35
2022-08-09T15:40:32.223Z,28.33
2022-08-09T15:43:02.766Z,29.71
2022-08-09T15:46:07.703Z,30.48
2022-08-09T15:48:29.095Z,32.46
2022-08-09T15:51:00.118Z,31.44
2022-08-09T15:54:03.959Z,32.46
2022-08-09T15:56:28.324Z,30.93
2022-08-09T15:58:58.865Z,32.68
2022-08-09T16:01:31.519Z,34.18
2022-08-09T16:04:05.292Z,33.82
2022-08-09T16:06:44.687Z,34.93
2022-08-09T16:09:51.484Z,35.86
2022-08-09T16:12:11.302Z,36.87
2022-08-09T16:14:41.087Z,38.49
2022-08-09T16:17:11.971Z,38.71
2022-08-09T16:19:49.012Z,37.92
2022-08-09T16:22:34.199Z,40.38
2022-08-09T16:25:08.259Z,39.10
2022-08-09T16:27:37.649Z,40.20
2022-08-09T16:30:09.505Z,41.03
2022-08-09T16:33:01.751Z,41.84
2022-08-09T16:35:56.438Z,42.61
2022-08-09T16:38:20.103Z,42.35
2022-08-09T16:40:53.293Z,44.14
2022-08-09T16:43:22.151Z,45.78
2022-08-09T16:45:53.514Z,45.39
2022-08-09T16:48:41.537Z,45.63
2022-08-09T16:51:14.053Z,47.64
2022-08-09T16:54:08.906Z,47.83
2022-08-09T16:56:36.407Z,47.04
2022-08-09T16:59:10.728Z,48.60
2022-08-09T17:01:43.078Z,47.17
2022-08-09T17:04:28.328Z,48.10
2022-08-09T17:08:40.629Z,48.69
2022-08-09T17:09:48.797Z,49.90
2022-08-09T17:12:21.095Z,51.38
2022-08-09T17:14:57.214Z,50.98
2022-08-09T17:17:27.978Z,52.25
2022-08-09T17:20:28.855Z,52.34
2022-08-09T17:22:51.940Z,52.72
2022-08-09T17:25:23.476Z,53.80
2022-08-09T17:27:55.922Z,54.64
2022-08-09T17:30:28.081Z,55.17
2022-08-09T17:33:00.835Z,55.68
2022-08-09T17:35:41.008Z,55.48
2022-08-09T17:38:14.244Z,56.68
2022-08-09T17:40:59.637Z,57.01
2022-08-09T17:43:35.717Z,57.66
2022-08-09T17:46:09.846Z,57.70
2022-08-09T17:48:52.197Z,57.74
2022-08-09T17:51:23.142Z,57.70
2022-08-09T17:53:55.933Z,57.77
2022-08-09T17:56:29.233Z,58.63
2022-08-09T17:59:11.866Z,58.25
2022-08-09T18:02:06.229Z,58.04
2022-08-09T18:04:36.844Z,59.00
2022-08-09T18:07:09.437Z,59.00
2022-08-09T18:10:04.154Z,59.23
2022-08-09T18:12:40.417Z,60.21
2022-08-09T18:16:05.634Z,60.54
2022-08-09T18:18:25.623Z,61.67
2022-08-09T18:21:19.319Z,62.39
2022-08-09T18:24:11.191Z,62.39
2022-08-09T18:26:35.159Z,62.43
2022-08-09T18:30:40.623Z,62.95
2022-08-09T18:31:58.400Z,62.54
2022-08-09T18:34:29.052Z,62.41
2022-08-09T18:36:58.442Z,62.94
2022-08-09T18:39:32.620Z,63.19
2022-08-09T18:42:08.913Z,63.48
2022-08-09T18:44:38.688Z,63.65
2022-08-09T18:47:15.883Z,63.70
2022-08-09T18:49:47.281Z,63.67
2022-08-09T18:52:18.703Z,64.20
2022-08-09T18:55:03.907Z,64.10
2022-08-09T18:57:44.680Z,64.07
2022-08-09T19:00:16.320Z,65.17
2022-08-09T19:02:54.792Z,65.58
2022-08-09T19:05:48.700Z,66.26
2022-08-09T19:08:19.775Z,66.16
2022-08-09T19:10:50.733Z,66.08
2022-08-09T19:13:23.206Z,65.62
2022-08-09T19:16:09.154Z,65.43
2022-08-09T19:18:44.457Z,65.90
2022-08-09T19:21:18.917Z,66.32
2022-08-09T19:24:39.832Z,67.66
2022-08-09T19:26:40.583Z,68.71
2022-08-09T19:29:18.160Z,68.99
2022-08-09T19:31:51.810Z,69.80
2022-08-09T19:34:24.421Z,68.18
2022-08-09T19:36:55.760Z,68.06
2022-08-09T19:39:43.262Z,68.99
2022-08-09T19:42:19.493Z,68.52
2022-08-09T19:44:51.175Z,68.99
2022-08-09T19:47:23.578Z,69.00
2022-08-09T19:50:09.647Z,70.10
2022-08-09T19:52:51.921Z,69.86
2022-08-09T19:55:25.792Z,70.66
2022-08-09T19:58:16.584Z,72.19
2022-08-09T20:00:47.427Z,72.38
2022-08-09T20:04:12.248Z,72.12
2022-08-09T20:06:22.304Z,71.78
2022-08-09T20:08:55.550Z,70.53
2022-08-09T20:11:42.983Z,70.48
2022-08-09T20:14:15.639Z,70.49
2022-08-09T20:16:50.252Z,71.36
2022-08-09T20:19:49.583Z,71.58
2022-08-09T20:22:16.647Z,71.49
2022-08-09T20:24:54.429Z,71.74
2022-08-09T20:27:24.617Z,72.24
2022-08-09T20:29:59.979Z,71.38
2022-08-09T20:32:33.804Z,72.07
2022-08-09T20:35:03.914Z,73.02
2022-08-09T20:38:19.352Z,75.19
2022-08-09T20:40:28.356Z,74.61
2022-08-09T20:43:18.552Z,75.39
2022-08-09T20:45:59.027Z,74.70
2022-08-09T20:48:32.237Z,75.63
2022-08-09T20:51:02.960Z,74.75
2022-08-09T20:53:38.557Z,73.54
2022-08-09T20:56:17.400Z,73.22
2022-08-09T20:58:54.483Z,74.80
2022-08-09T21:01:35.377Z,75.06
2022-08-09T21:05:54.935Z,73.76
2022-08-09T21:07:13.160Z,74.08
2022-08-09T21:09:55.527Z,74.10
2022-08-09T21:15:16.701Z,74.63
2022-08-09T21:18:11.526Z,74.55
2022-08-09T21:20:37.476Z,75.52
2022-08-09T21:23:09.025Z,76.36
2022-08-09T21:25:55.651Z,75.45
2022-08-09T21:28:35.042Z,75.26
2022-08-09T21:31:18.146Z,73.41
2022-08-09T21:33:52.143Z,74.57
2022-08-09T21:36:27.834Z,74.62
2022-08-09T21:38:59.549Z,74.84
2022-08-09T21:42:04.667Z,74.26
2022-08-09T21:44:33.014Z,74.87
2022-08-09T21:47:07.844Z,75.12
2022-08-09T21:49:42.950Z,75.74
2022-08-09T21:52:17.773Z,75.79
2022-08-09T21:54:51.083Z,75.88
2022-08-09T21:57:37.121Z,75.03
2022-08-09T22:00:12.794Z,75.47
2022-08-09T22:02:42.956Z,75.33
2022-08-09T22:05:22.891Z,75.97
2022-08-09T22:07:54.226Z,75.75
2022-08-09T22:10:24.184Z,76.46
2022-08-09T22:12:55.327Z,74.18
2022-08-09T22:15:33.406Z,74.85
2022-08-09T22:18:05.092Z,75.64
2022-08-09T22:20:41.635Z,75.56
2022-08-09T22:23:13.364Z,75.06
2022-08-09T22:26:06.492Z,75.61
2022-08-09T22:28:34.655Z,76.79
2022-08-09T22:31:03.999Z,75.65
2022-08-09T22:33:48.776Z,75.37
2022-08-09T22:36:19.637Z,74.89
2022-08-09T22:38:49.128Z,75.42
2022-08-09T22:41:19.342Z,76.00
2022-08-09T22:44:01.735Z,76.16
2022-08-09T22:48:13.937Z,75.72
2022-08-09T22:49:23.631Z,75.57
2022-08-09T22:51:57.480Z,77.17
2022-08-09T22:54:28.171Z,77.43
2022-08-09T22:56:58.677Z,78.06
2022-08-09T22:59:55.884Z,76.54
2022-08-09T23:02:20.293Z,76.99
2022-08-09T23:04:54.179Z,76.59
2022-08-09T23:08:29.197Z,75.90
2022-08-09T23:10:32.521Z,75.10
2022-08-09T23:13:01.975Z,76.50
2022-08-09T23:15:32.920Z,75.00
2022-08-09T23:18:02.283Z,77.72
2022-08-09T23:20:31.893Z,76.40
2022-08-09T23:23:00.857Z,76.64
2022-08-09T23:25:30.282Z,77.17
2022-08-09T23:28:14.661Z,77.61
2022-08-09T23:30:52.128Z,76.68
2022-08-09T23:33:21.729Z,77.06
2022-08-09T23:36:05.094Z,77.66
2022-08-09T23:38:49.184Z,76.87
2022-08-09T23:41:27.630Z,76.71
2022-08-09T23:43:59.702Z,77.55
2022-08-09T23:46:31.725Z,76.35
2022-08-09T23:49:01.415Z,76.33
2022-08-09T23:51:30.870Z,76.47
2022-08-09T23:54:03.041Z,76.55
2022-08-09T23:56:53.765Z,76.60
2022-08-09T23:59:24.125Z,77.80
